Welcome to our new website - Welkom op onze vernieuwde website - Bienvenue sur notre nouveau site web - Willkommen auf unserer neuen Website
Check our progress frequently. Prüfen Sie unsere Fortschritte regelmäßig. Consultez notre progression fréquemment. Komt u straks nog eens

KNMI Weersverwachting is alleen beschikbaar in de Nederlandse Taal, Ongeacht welke taal u kiest.
KNMI weather forecast is only available in the Dutch language, No matter what language you choose.







Meteo Oudkarspel - De weer weet site voor Langedijk

Blijf op de hoogte van het actuele weer, Keep up to date with the current weather.



Lokaal brandgevaar
CBI


Regionaal natuur brand risico: Meer informatie


Mijn Webcam 1 Meer informatie My webcam


Mijn Webcam 2 Meer informatie My webcam 2


Onweer radar Meer informatie blitzortung!


Regen radar Meer informatie rain snow radar


Bezoek onze andere website:

Template - Davis WeatherLink Version
Vantage Veu

Template - Meteotemplate

Template - HomeWeatherStation

PDøROK Multimedia

Meteo Broek Op Langedijk

Lief LangedijkLief Langedijk

Ijsvereniging Volharding

Meteo Tuitjenhorn

Meteo Delfzijl

Meteo SauwerdMeteo Sauwerd

WeerstationMeteo Sauwerd

Weerstation Noordbergum

Weerstation ParkstadWeerstation Parkstad

NPO 3FM Serious Request

Norderney



Het weer levert geen direct gevaar op.    Er zijn geen waarschuwingen afgegeven.

METAR rapporten vliegvelden

   
EBBR - Brussels International Airport, Belgium
Afstand tot: W 14 km
Gewijzigd: 19-May-2019 10:50
Wat regen mogelijk, Nevel, Licht bewolkt  
Wat regen mogelijk, Nevel, Licht bewolkt  
   Wind: NW 14.8 km/h
Wind: NW 14.8 km/h
Temperatuur: 15°C
Dauwpunt: 13°C
Vochtigheid: 88%
Barometer: 1006 hPa
Bewolking: Licht bewolkt
Zicht: 4 km
Bewolking: Licht bewolkt 213.4 m
EBBR 190850Z 32008KT 290V360 3900 -RA BR FEW007 15/13 Q1006 NOSIG
EBBE - Beauvechain (Bevekom), Belgium
Afstand tot: ZZO 17 km
Gewijzigd: 19-May-2019 10:25
Nevel, Grotendeels bewolkt  
Nevel, Grotendeels bewolkt  
   Wind: WNW 11.1 km/h
Wind: WNW 11.1 km/h
Temperatuur: 14°C
Dauwpunt: 13°C
Vochtigheid: 94%
Barometer: 1006 hPa
Bewolking: Grotendeels bewolkt
Zicht: 2 km
Bewolking: Grotendeels bewolkt 152.4 m,
Grotendeels bewolkt 1828.8 m
EBBE 190825Z AUTO 30006KT 2400 BR BKN005/// BKN060/// 14/13 Q1006 YLO
EBDT - Schaffen, Belgium
Afstand tot: ONO 29 km
Gewijzigd: 19-May-2019 10:25
Nevel, Grotendeels bewolkt  
Nevel, Grotendeels bewolkt  
   Wind: Noorden 13 km/h
Wind: Noorden 13 km/h
Temperatuur: 15°C
Dauwpunt: 13°C
Vochtigheid: 88%
Barometer: 1006 hPa
Bewolking: Grotendeels bewolkt
Zicht: 3 km
Bewolking: Licht bewolkt 274.3 m,
Grotendeels bewolkt 2743.2 m
EBDT 190825Z AUTO 36007KT 2600 BR FEW009/// BKN090/// 15/13 Q1006 YLO
EBAW - Antwerp/Deurne, Belgium
Afstand tot: NNW 38 km
Gewijzigd: 19-May-2019 10:50
Licht bewolkt  
Licht bewolkt  
   Wind: NNW 16.7 km/h
Wind: NNW 16.7 km/h
Temperatuur: 16°C
Dauwpunt: 12°C
Vochtigheid: 77%
Barometer: 1007 hPa
Bewolking: Licht bewolkt
Zicht: 6 km
Bewolking: Licht bewolkt 304.8 m
EBAW 190850Z 34009KT 6000 FEW010 16/12 Q1007 TEMPO BKN014
EBCI - Charleroi/Gosselies, Belgium
Afstand tot: ZZW 51 km
Gewijzigd: 19-May-2019 10:50
Nevel, Grotendeels bewolkt  
Nevel, Grotendeels bewolkt  
   Wind: NNW 11.1 km/h
Wind: NNW 11.1 km/h
Temperatuur: 13°C
Dauwpunt: 12°C
Vochtigheid: 94%
Barometer: 1007 hPa
Bewolking: Grotendeels bewolkt
Zicht: 2 km
Bewolking: Gedeeltelijk bewolkt 121.9 m,
Grotendeels bewolkt 182.9 m
EBCI 190850Z 33006KT 290V020 1600 BR SCT004 BKN006 13/12 Q1007 TEMPO 1500 BR BKN003
EBLG - Bierset/Liege, Belgium
Afstand tot: OZO 60 km
Gewijzigd: 19-May-2019 10:50
Nevel, Grotendeels bewolkt  
Nevel, Grotendeels bewolkt  
   Wind: varieert 3.7 km/h
Wind: varieert 3.7 km/h
Temperatuur: 14°C
Dauwpunt: 12°C
Vochtigheid: 88%
Barometer: 1006 hPa
Bewolking: Grotendeels bewolkt
Zicht: 3 km
Bewolking: Grotendeels bewolkt 274.3 m
EBLG 190850Z VRB02KT 2700 BR BKN009 14/12 Q1006 NOSIG

Script ontwikkeld door  Saratoga-weather.org Aangepast voor de template door  Weerstation Leuven

U vindt ons ook hier:

Vereniging voor Weerkunde en Klimatologie

Het Weer Aktueel

WOW Nederland KNMI

UK Metoffice

European Weather Network

WeatherCloud

Weather Underground

Benelux Weer Netwerk

AWEKAS

WeatherlinkIP

Citizen Weather Observer Program (CWOP)

HAMweather, WeatherForYou, PWS Weather

        

Apparatuur in gebruik:

Weerstation
Davis - Vantage Veu

Weerprogramma
Meteobridge

Weercomputer
Carambola2 - MeteroBridge Pro (black)

Webleverancier
1Eurohosting

Hardwareleverancier 1
Uurwerk- & Meteospecialist Vlasma

Hardwareleverancier 2
Weerhuisje

Davis - Vantage Veu

Meteobridge

Carambola2 - MeteroBridge Pro (black)

1Eurohosting

Uurwerk- & Meteospecialist Vlasma

Weerhuisje


Alles over het weer rondom het weerstation van Meteo Oudkarspel, vind je hier. Dus alles onder 1 dak.

Everything about the weather around the Meteo Oudkarspel weather station can be found here. So everything under one roof..

Dus kom regelmatig terug, So come back regularly.